Terminal Aerodrome Forecast
Issued by NWS

Home | Current Version | Previous Version | Text Only | Print | Product List | Glossary On
Versions: 1 2 3 4 5 6 7 8 9 10 11 12 13
000
FTUS43 KGLD 081720
TAFMCK
TAF
KMCK 081720Z 0818/0918 34020G31KT P6SM FEW250
     FM082300 33014KT P6SM SCT250
     FM090000 32009KT P6SM BKN200
     FM090300 32013KT P6SM BKN250
     FM091100 30009KT P6SM FEW250=

USA.gov is the U.S. government's official web portal to all federal, state and local government web resources and services.